Wahoo, NE (68066)

7:43 AM CST on February 13, 2016 (GMT -0600)
Wahoo Municipal | | Change Station
CLOSE
Current Station
Airport
Location: Wahoo,
Elevation: 1224 ft
Nearby Weather Stations

Elev 1224 ft 41.24 °N, 96.59 °W | Updated 8 minutes ago

Overcast
Overcast
13 °F
Feels Like 1 °F
N
9
Wind Variable Wind from East

Today
High -- | Low -- °F
--% Chance of Precip.
Yesterday
High -- | Low -- °F
Precip. -- in
Pressure 30.56 in
Visibility 10.0 miles
Clouds Overcast 7000 ft
Windchill 1 °F
Dew Point 6 °F
Humidity 72%
Rainfall 0.00 in
Snow Depth Not available.
7:24 AM 5:57 PM
Waxing Crescent, 31% visible
METAR KAHQ 131335Z AUTO 09008KT 10SM OVC070 M10/M15 A3056 RMK AO2 T11051146
Pressure 30.56 in
Visibility 10.0 miles
Clouds Overcast 7000 ft
Windchill 1 °F
Dew Point 6 °F
Humidity 72%
Rainfall 0.00 in
Snow Depth Not available.
7:24 AM 5:57 PM
Waxing Crescent, 31% visible
METAR KAHQ 131335Z AUTO 09008KT 10SM OVC070 M10/M15 A3056 RMK AO2 T11051146

10-Day Weather Forecast

Almanac

Astronomy

Feb. 13, 2016 Rise Set
Actual Time
Civil Twilight
Nautical Twilight
Astronomical Twilight
Moon
Length of Visible Light
Length of Day
Tomorrow will be .
, % of the Moon is Illuminated

Today's Extremes

State Highs State Lows

Community

WunderPhotos

Upload Photos

1,892,547 photos uploaded!

WunderBlog® & News

Nearby

Air Quality

  Air Quality AQ Index Pollutant
Not available.

Snow Depth

Station Depth Elevation

Earthquake Activity

City Distance Mag. Time & Date
Minimum magnitude displayed is 2.5.

Coastal Water Temperatures

Place Temperature

Stations

Nearby Weather Stations

Station Location Temp. Windchill Dew Point Humidity Wind Precip. Elev Updated Type
                   

Watches & Warnings

There are currently no watches in effect.